TrOMS Polaris — LAVT7 — position and weather

sailwx.info

Track history (hours):
 
Tides and Currents Weather Stations Pressure Air Temp Water Temp Dewpoint Dewpoint Depression Visibility Wind Speed Wind Dir Waves Ship Positions

TrOMS Polaris

Last reported at 2018-Aug-19 09:17 UTC. Time now 2018-Aug-20 16:17 UTC.
Position N 29°44' W 095°13'.

Length 89 m.

Type: Other ship. MMSI: 257023000.

Date/timePositionNaut miles runAvg speedWind from/ knotsBaromVisibWave heightAir tempDewpointWater temp
2018-Aug-19 09:17N 29°44' W 095°13'0 0.5
2018-Aug-19 09:01N 29°44' W 095°13'1 2.2
2018-Aug-19 08:28N 29°44' W 095°12'2 4.6
2018-Aug-19 08:00N 29°45' W 095°10'3 4.9
2018-Aug-19 07:28N 29°44' W 095°07'2 5.1
2018-Aug-19 07:01N 29°46' W 095°05'3 6.9
2018-Aug-19 06:30N 29°44' W 095°02'3 6.8
2018-Aug-19 06:00N 29°41' W 094°59'510.7
2018-Aug-19 05:31N 29°36' W 094°57'611.5
2018-Aug-19 05:00N 29°31' W 094°53'612.2
2018-Aug-19 04:30N 29°26' W 094°50'612.7
2018-Aug-19 04:00N 29°21' W 094°46'1310.7
2018-Aug-19 02:45N 29°16' W 094°32'2 8.6
2018-Aug-19 02:30N 29°15' W 094°29'2 0.5
2018-Aug-18 23:32N 29°16' W 094°28'0 0.1
2018-Aug-18 23:26N 29°16' W 094°28'0 0.0
2018-Aug-18 22:26N 29°16' W 094°28'0 0.0
2018-Aug-17 18:56N 29°16' W 094°28'0 0.0
2018-Aug-17 17:17N 29°16' W 094°28'0 0.0
2018-Aug-17 16:59N 29°16' W 094°28'  
2018-Aug-14 08:53N 28°48' W 093°46'  
Track history (hours):
 
Tides and Currents Weather Stations Pressure Air Temp Water Temp Dewpoint Dewpoint Depression Visibility Wind Speed Wind Dir Waves Ship Positions

TrOMS Polaris

Last reported at 2018-Aug-19 09:17 UTC. Time now 2018-Aug-20 16:17 UTC.
Position N 29°44' W 095°13'.

Length 89 m.

Type: Other ship. MMSI: 257023000.

Date/timePositionNaut miles runAvg speedWind from/ knotsBaromVisibWave heightAir tempDewpointWater temp
2018-Aug-19 09:17N 29°44' W 095°13'0 0.5
2018-Aug-19 09:01N 29°44' W 095°13'1 2.2
2018-Aug-19 08:28N 29°44' W 095°12'2 4.6
2018-Aug-19 08:00N 29°45' W 095°10'3 4.9
2018-Aug-19 07:28N 29°44' W 095°07'2 5.1
2018-Aug-19 07:01N 29°46' W 095°05'3 6.9
2018-Aug-19 06:30N 29°44' W 095°02'3 6.8
2018-Aug-19 06:00N 29°41' W 094°59'510.7
2018-Aug-19 05:31N 29°36' W 094°57'611.5
2018-Aug-19 05:00N 29°31' W 094°53'612.2
2018-Aug-19 04:30N 29°26' W 094°50'612.7
2018-Aug-19 04:00N 29°21' W 094°46'1310.7
2018-Aug-19 02:45N 29°16' W 094°32'2 8.6
2018-Aug-19 02:30N 29°15' W 094°29'2 0.5
2018-Aug-18 23:32N 29°16' W 094°28'0 0.1
2018-Aug-18 23:26N 29°16' W 094°28'0 0.0
2018-Aug-18 22:26N 29°16' W 094°28'0 0.0
2018-Aug-17 18:56N 29°16' W 094°28'0 0.0
2018-Aug-17 17:17N 29°16' W 094°28'0 0.0
2018-Aug-17 16:59N 29°16' W 094°28'  
2018-Aug-14 08:53N 28°48' W 093°46'  

Dump ship's entire track history